Impacts TAF Board INFO
FOR SITUATIONAL AWARENESS. NOT TO BE USED FOR FLIGHT PLANNING PURPOSES.
IDs:

KFLL - Ft Lauderdale-Hollyw, FL, US

Issued at 2332 UTC 22 Jun 2018
Updated at 0029 UTC 23 Jun 2018
Potential Impact None Slight Moderate High
Time2353Z 23/01Z 23/02Z 23/03Z 23/04Z 23/05Z 23/06Z 23/07Z 23/08Z 23/09Z 23/10Z 23/11Z 23/12Z 23/13Z>>
Type OBS PRVL PRVL PRVL PRVL PRVL PRVL PRVL PRVL PRVL PRVL PRVL PRVL PRVL
VIS 10 >6 >6 >6 >6 >6 >6 >6 >6 >6 >6 >6 >6 >6
CIG 110 120 -- -- -- -- -- -- -- -- -- -- -- --
Cover OVC BKN SCT SCT SCT SCT SCT SCT SCT SCT SCT SCT SCT SCT
FltCat VFR VFR VFR VFR VFR VFR VFR VFR VFR VFR VFR VFR VFR VFR
WX -RA VCSH -- -- -- -- -- -- -- -- -- -- -- --
WDir 160 130 VRB VRB VRB VRB VRB VRB VRB VRB VRB VRB VRB VRB
WSpd 4 5 3 3 3 3 3 3 3 3 3 3 3 3
WGst -- -- -- -- -- -- -- -- -- -- -- -- -- --

Raw TAF
KFLL 222332Z 2300/2406 13005KT P6SM VCSH FEW020 SCT070 BKN120
  FM230200 VRB03KT P6SM FEW025 SCT250
  FM231400 29005KT P6SM SCT030 SCT050
  FM231800 34007KT P6SM VCTS SCT025CB BKN050
  FM240000 VRB05KT P6SM VCSH FEW030 SCT070 BKN120
  FM240200 VRB03KT P6SM FEW020 SCT250


Raw METAR
KFLL 222353Z 16004KT 10SM -RA FEW030 BKN110 BKN170 OVC250 26/24 A2996 RMK AO2 LTG DSNT W AND NW SLP144 CB DSNT SW-W NW MOV SE P0000 60060 T02610239 10333 20244 51001
KFLL 222253Z 12004KT 10SM -RA FEW020 FEW035 BKN110 BKN170 BKN220 27/25 A2996 RMK AO2 LTG DSNT ALQDS RAE24B52 TSE03 SLP144 OCNL LTGICCG DSNT E-SE CB DSNT E-SE MOV E P0000 T02670250
KFLL 222249Z 14004KT 10SM FEW015 FEW035 SCT110 BKN170 OVC220 26/25 A2996 RMK AO2 LTG DSNT ALQDS RAE24 TSE03 FRQ LTGICCG DSNT E-SE S CB DSNT NE E-SE S W P0000
KFLL 222229Z 14007KT 10SM VCTS FEW015 FEW035 SCT110 BKN170 OVC220 26/24 A2996 RMK AO2 LTG DSNT ALQDS RAE24 TSE03 FRQ LTGICCG DSNT E-SE S CB DSNT NE E-SE S W P0000 T02610244
KFLL 222209Z 14009KT 9SM VCTS -RA BR FEW025 FEW035CB BKN110 26/24 A2996 RMK AO2 LTG DSNT ALQDS TSE03 P0000 T02560244
KFLL 222153Z 12011KT 9SM -TSRA BR FEW025 FEW035CB BKN110 BKN170 BKN250 25/24 A2995 RMK AO2 PK WND 11034/2105 WSHFT 2044 LTG DSNT ALQDS SLP143 OCNL LTGCG NE-SE S-SW TS NE-SE MOV SE TS S-SW MOV S P0017 T02500239

METAR Board
Radar Display
Forecast Discussion

FOR SITUATIONAL AWARENESS. NOT TO BE USED FOR FLIGHT PLANNING PURPOSES.